Time;durP1;ratioP1;P1;durP2;ratioP2;P2;SDS_P1;SDS_P2;PMS_P1;PMS_P2;Temp;Humidity;BMP_temperature;BMP_pressure;BME280_temperature;BME280_humidity;BME280_pressure;Samples;Min_cycle;Max_cycle;Signal;HPM_P1;HPM_P2
2022/07/17 00:01:27;;;;;;;5.95;3.30;;;;;;;10.30;75.28;101039.56;2108711;84;33361;-67
2022/07/17 00:04:28;;;;;;;6.08;2.90;;;;;;;10.27;75.33;101041.01;2108462;84;30541;-66
2022/07/17 00:07:33;;;;;;;5.28;2.90;;;;;;;10.23;75.30;101046.95;2109085;84;27718;-67
2022/07/17 00:10:36;;;;;;;5.45;2.70;;;;;;;10.19;75.35;101047.98;2108896;84;29913;-66
2022/07/17 00:13:37;;;;;;;7.50;3.20;;;;;;;10.14;75.28;101048.16;2108411;83;30166;-67
2022/07/17 00:16:39;;;;;;;4.85;2.35;;;;;;;10.11;75.33;101050.08;2105007;84;32717;-66
2022/07/17 00:19:42;;;;;;;8.35;2.65;;;;;;;10.07;75.46;101047.98;2105077;84;29689;-65
2022/07/17 00:22:43;;;;;;;4.87;2.92;;;;;;;10.04;75.40;101052.09;2105129;84;27670;-66
2022/07/17 00:25:46;;;;;;;3.47;2.92;;;;;;;10.00;75.54;101052.68;2105186;84;28542;-66
2022/07/17 00:28:47;;;;;;;3.75;2.45;;;;;;;9.97;75.50;101057.24;2105041;84;31584;-68
2022/07/17 00:31:49;;;;;;;4.70;2.77;;;;;;;9.94;75.57;101056.00;2104910;84;33300;-68
2022/07/17 00:34:51;;;;;;;4.47;2.55;;;;;;;9.91;75.60;101060.16;2104955;84;29732;-67
2022/07/17 00:37:52;;;;;;;6.17;2.60;;;;;;;9.88;75.64;101060.67;2105015;84;27695;-67
2022/07/17 00:40:56;;;;;;;4.75;3.08;;;;;;;9.86;75.73;101061.63;2105071;84;29847;-67
2022/07/17 00:44:08;;;;;;;4.40;2.62;;;;;;;9.84;75.73;101074.22;2105400;84;31023;-67
2022/07/17 00:47:16;;;;;;;6.25;2.60;;;;;;;9.79;75.77;101067.66;2108030;84;34136;-67
2022/07/17 00:50:18;;;;;;;5.53;2.65;;;;;;;9.76;75.80;101067.78;2094733;84;29095;-67
2022/07/17 00:53:19;;;;;;;6.28;2.60;;;;;;;9.75;75.88;101066.48;2090325;84;27580;-67
2022/07/17 00:56:22;;;;;;;5.25;2.22;;;;;;;9.71;75.90;101067.91;2090109;85;29034;-67
2022/07/17 00:59:25;;;;;;;6.30;2.17;;;;;;;9.70;75.98;101070.17;2102260;84;31085;-68
2022/07/17 01:02:28;;;;;;;3.83;2.35;;;;;;;9.69;76.04;101068.91;2089690;85;29413;-68
2022/07/17 01:05:29;;;;;;;4.62;2.77;;;;;;;9.69;76.01;101072.91;2090143;85;29734;-68
2022/07/17 01:08:32;;;;;;;4.03;2.45;;;;;;;9.64;75.81;101074.41;2102616;84;27674;-65
2022/07/17 01:11:33;;;;;;;4.53;2.60;;;;;;;9.61;75.88;101082.53;2089966;85;29048;-65
2022/07/17 01:14:34;;;;;;;3.65;2.37;;;;;;;9.58;75.93;101089.32;2089378;85;32236;-65
2022/07/17 01:17:37;;;;;;;6.00;3.05;;;;;;;9.54;75.98;101086.33;2089083;85;34145;-65
2022/07/17 01:20:43;;;;;;;6.83;3.02;;;;;;;9.52;76.00;101086.83;2088810;85;29410;-66
2022/07/17 01:23:44;;;;;;;5.45;2.87;;;;;;;9.45;75.90;101084.82;2089266;85;27617;-65
2022/07/17 01:26:48;;;;;;;5.50;3.20;;;;;;;9.44;75.92;101088.42;2089197;85;29053;-66
2022/07/17 01:29:50;;;;;;;4.78;2.50;;;;;;;9.41;76.01;101092.08;2089257;85;31037;-68
2022/07/17 01:32:51;;;;;;;3.35;2.40;;;;;;;9.36;76.03;101087.80;2089167;85;33302;-68
2022/07/17 01:35:52;;;;;;;8.38;3.05;;;;;;;9.37;76.28;101094.91;2089125;85;29714;-67
2022/07/17 01:38:56;;;;;;;2.33;2.05;;;;;;;9.37;76.32;101090.89;2089403;85;27676;-66
2022/07/17 01:41:57;;;;;;;8.28;3.17;;;;;;;9.36;76.32;101095.83;2088940;85;29878;-66
2022/07/17 01:44:58;;;;;;;5.05;2.40;;;;;;;9.35;76.19;101096.75;2089538;85;31396;-67
2022/07/17 01:47:59;;;;;;;5.45;2.75;;;;;;;9.32;76.27;101100.41;2090206;84;33309;-66
2022/07/17 01:51:04;;;;;;;3.85;2.30;;;;;;;9.31;76.29;101097.32;2104583;84;29277;-66
2022/07/17 01:54:05;;;;;;;8.08;2.47;;;;;;;9.27;76.29;101092.50;2108844;84;27983;-66
2022/07/17 01:57:08;;;;;;;3.17;2.60;;;;;;;9.24;76.31;101104.66;2108530;84;29079;-66
2022/07/17 02:00:16;;;;;;;3.83;2.42;;;;;;;9.21;76.40;101100.73;2108616;84;31411;-68
2022/07/17 02:03:18;;;;;;;2.52;2.30;;;;;;;9.22;76.44;101093.58;2108504;84;33117;-66
2022/07/17 02:06:19;;;;;;;5.37;2.20;;;;;;;9.19;76.50;101099.91;2108635;84;29692;-65
2022/07/17 02:09:22;;;;;;;4.50;2.80;;;;;;;9.18;76.56;101096.82;2108463;84;27630;-65
2022/07/17 02:12:23;;;;;;;8.38;2.33;;;;;;;9.18;76.60;101090.61;2108486;84;29025;-64
2022/07/17 02:15:25;;;;;;;11.12;2.92;;;;;;;9.17;76.63;101100.41;2105637;84;31440;-60
2022/07/17 02:18:26;;;;;;;4.97;2.80;;;;;;;9.17;76.61;101098.22;2104932;84;34089;-61
2022/07/17 02:21:27;;;;;;;4.67;2.70;;;;;;;9.15;76.63;101104.92;2104915;84;29708;-65
2022/07/17 02:24:29;;;;;;;5.28;2.47;;;;;;;9.12;76.57;101100.56;2105275;84;27568;-66
2022/07/17 02:27:34;;;;;;;4.35;2.70;;;;;;;9.12;76.58;101107.25;2104521;84;29505;-66
2022/07/17 02:30:35;;;;;;;3.17;2.05;;;;;;;9.09;76.57;101107.33;2105298;84;32436;-67
2022/07/17 02:33:36;;;;;;;7.40;2.70;;;;;;;9.08;76.58;101108.25;2104453;84;33359;-68
2022/07/17 02:36:38;;;;;;;9.60;3.17;;;;;;;9.05;76.51;101109.67;2104957;84;29764;-65
2022/07/17 02:39:52;;;;;;;6.67;2.47;;;;;;;9.04;76.64;101112.41;2104608;84;27715;-66
2022/07/17 02:42:42;;;;;;;5.67;3.65;;;;;;;9.02;76.61;101110.23;2102744;84;30009;-68
2022/07/17 02:45:44;;;;;;;8.70;3.95;;;;;;;9.00;76.58;101108.06;2108017;84;31389;-67
2022/07/17 02:48:45;;;;;;;8.63;3.20;;;;;;;8.97;76.58;101107.70;2108662;84;34070;-66
2022/07/17 02:51:46;;;;;;;7.70;3.22;;;;;;;8.93;76.50;101106.94;2090846;84;30596;-66
2022/07/17 02:54:48;;;;;;;10.48;3.17;;;;;;;8.92;76.54;101105.18;2090181;85;27639;-65
2022/07/17 02:57:49;;;;;;;6.22;2.80;;;;;;;8.91;76.65;101106.09;2090522;85;29181;-66
2022/07/17 03:00:51;;;;;;;5.87;3.00;;;;;;;8.89;76.57;101117.29;2090040;85;31481;-64
2022/07/17 03:03:52;;;;;;;5.20;3.33;;;;;;;8.89;76.70;101111.95;2089964;85;33370;-67
2022/07/17 03:06:53;;;;;;;7.37;3.72;;;;;;;8.90;76.79;101108.36;2090187;84;30072;-69
2022/07/17 03:09:54;;;;;;;6.72;3.35;;;;;;;8.92;76.87;101105.63;2089897;85;27749;-68
2022/07/17 03:12:56;;;;;;;6.03;3.10;;;;;;;8.92;76.80;101110.97;2089948;84;29049;-68
2022/07/17 03:15:57;;;;;;;4.90;3.20;;;;;;;8.93;76.88;101116.28;2089346;85;31160;-69
2022/07/17 03:18:58;;;;;;;8.53;3.30;;;;;;;8.96;76.96;101115.31;2089227;85;33117;-66
2022/07/17 03:21:59;;;;;;;6.58;3.20;;;;;;;9.00;77.02;101118.31;2089208;85;29438;-67
2022/07/17 03:25:01;;;;;;;11.25;2.98;;;;;;;9.03;76.89;101113.33;2089473;85;27705;-67
2022/07/17 03:28:05;;;;;;;5.30;3.20;;;;;;;9.07;76.97;101119.00;2088939;85;29997;-66
2022/07/17 03:31:07;;;;;;;7.35;3.17;;;;;;;9.12;77.04;101122.39;2089293;85;31629;-66
2022/07/17 03:34:08;;;;;;;6.58;3.20;;;;;;;9.16;77.08;101122.72;2089314;85;34051;-64
2022/07/17 03:37:09;;;;;;;6.65;3.80;;;;;;;9.21;77.11;101128.81;2089374;85;30439;-66
2022/07/17 03:40:12;;;;;;;6.50;3.40;;;;;;;9.27;77.10;101133.09;2089238;85;27687;-66
2022/07/17 03:43:13;;;;;;;6.35;4.40;;;;;;;9.34;77.14;101132.44;2063469;85;30052;-66
2022/07/17 03:46:15;;;;;;;7.50;3.08;;;;;;;9.38;77.13;101132.28;2090302;85;32212;-66
2022/07/17 03:49:16;;;;;;;6.58;3.05;;;;;;;9.43;77.18;101123.66;2090291;84;33326;-65
2022/07/17 03:52:18;;;;;;;8.55;3.47;;;;;;;9.50;77.18;101129.69;2117921;82;29364;-62
2022/07/17 03:55:19;;;;;;;7.58;4.10;;;;;;;9.57;77.15;101135.27;2112083;84;27657;-68
2022/07/17 03:58:20;;;;;;;7.40;4.92;;;;;;;9.64;77.26;101135.95;2112021;84;28608;-68
2022/07/17 04:01:21;;;;;;;6.70;3.52;;;;;;;9.71;77.22;101135.28;2111390;84;31611;-67
2022/07/17 04:04:23;;;;;;;7.78;3.20;;;;;;;9.78;77.01;101134.14;2111821;84;34076;-62
2022/07/17 04:07:27;;;;;;;16.05;3.35;;;;;;;9.84;76.97;101140.64;2111850;84;29695;-67
2022/07/17 04:10:31;;;;;;;9.50;2.90;;;;;;;9.91;77.06;101137.30;2111910;84;27662;-66
2022/07/17 04:13:33;;;;;;;5.72;2.80;;;;;;;9.98;76.99;101136.62;2118219;84;30072;-67
2022/07/17 04:16:34;;;;;;;11.15;3.27;;;;;;;10.07;77.01;101135.44;2111790;84;31381;-66
2022/07/17 04:19:36;;;;;;;6.15;3.35;;;;;;;10.14;76.89;101139.19;2111475;84;33015;-68
2022/07/17 04:22:37;;;;;;;9.15;3.22;;;;;;;10.23;77.01;101139.81;2111953;84;30424;-63
2022/07/17 04:25:39;;;;;;;8.78;3.58;;;;;;;10.32;77.00;101132.34;2111797;84;28299;-67
2022/07/17 04:28:41;;;;;;;7.60;3.00;;;;;;;10.41;76.97;101126.27;2111713;84;28645;-66
2022/07/17 04:31:42;;;;;;;8.23;2.95;;;;;;;10.49;76.74;101133.58;2111703;84;31163;-64
2022/07/17 04:34:43;;;;;;;6.50;3.10;;;;;;;10.56;76.63;101140.45;2111664;84;33343;-66
2022/07/17 04:37:44;;;;;;;4.95;2.60;;;;;;;10.66;76.69;101137.45;2111734;84;30441;-63
2022/07/17 04:40:48;;;;;;;7.50;3.50;;;;;;;10.74;76.45;101141.59;2114245;82;27656;-65
2022/07/17 04:43:50;;;;;;;9.00;3.72;;;;;;;10.87;76.37;101140.66;2131325;82;28461;-65
2022/07/17 04:46:51;;;;;;;7.75;3.05;;;;;;;11.70;78.56;101146.40;2108343;84;31955;-67
2022/07/17 04:49:53;;;;;;;6.45;3.12;;;;;;;13.24;79.91;101147.36;2107886;84;32988;-67
2022/07/17 04:52:54;;;;;;;8.28;3.08;;;;;;;14.92;79.35;101145.74;2108031;84;30467;-66
2022/07/17 04:55:55;;;;;;;5.28;2.77;;;;;;;16.51;77.13;101143.88;2108562;84;27720;-68
2022/07/17 04:58:56;;;;;;;6.12;2.60;;;;;;;17.93;74.74;101143.45;2108341;84;29834;-68
2022/07/17 05:01:58;;;;;;;3.67;2.37;;;;;;;19.32;73.19;101138.87;2108331;84;31005;-67
2022/07/17 05:05:00;;;;;;;8.70;3.10;;;;;;;20.60;70.96;101147.38;2108295;84;34115;-66
2022/07/17 05:08:02;;;;;;;4.65;2.50;;;;;;;21.78;68.90;101157.06;2107976;84;31483;-66
2022/07/17 05:11:03;;;;;;;8.53;3.37;;;;;;;22.81;66.78;101146.03;2108044;84;27656;-66
2022/07/17 05:14:05;;;;;;;6.35;2.58;;;;;;;23.76;64.68;101155.36;2112300;84;28052;-65
2022/07/17 05:17:06;;;;;;;6.30;2.60;;;;;;;24.62;62.22;101167.00;2115176;84;32220;-67
2022/07/17 05:20:08;;;;;;;5.97;2.30;;;;;;;25.37;60.77;101167.56;2115027;84;32921;-69
2022/07/17 05:23:09;;;;;;;5.53;2.70;;;;;;;26.03;59.31;101168.81;2115397;84;29500;-67
2022/07/17 05:26:11;;;;;;;6.30;2.67;;;;;;;26.50;56.82;101169.95;2115045;84;27660;-67
2022/07/17 05:29:12;;;;;;;3.52;2.05;;;;;;;27.05;55.77;101176.20;2115600;84;28851;-68
2022/07/17 05:32:14;;;;;;;3.92;2.37;;;;;;;27.56;54.13;101174.89;2115226;84;31029;-68
2022/07/17 05:35:16;;;;;;;7.00;2.60;;;;;;;28.01;52.37;101169.17;2115092;84;33495;-69
2022/07/17 05:38:17;;;;;;;6.40;2.47;;;;;;;28.27;51.57;101173.19;2115341;84;29929;-70
2022/07/17 05:41:18;;;;;;;4.10;2.05;;;;;;;28.51;50.28;101176.95;2115689;84;27729;-65
2022/07/17 05:44:19;;;;;;;5.47;2.35;;;;;;;28.61;49.14;101186.43;2078082;85;29828;-67
2022/07/17 05:47:21;;;;;;;4.10;2.50;;;;;;;28.70;48.00;101178.51;2115261;84;31601;-67
2022/07/17 05:50:22;;;;;;;3.60;2.22;;;;;;;28.82;47.20;101179.55;2115744;84;34077;-68
2022/07/17 05:53:24;;;;;;;4.65;1.92;;;;;;;28.92;46.78;101184.34;2078912;85;29796;-65
2022/07/17 05:56:25;;;;;;;4.03;2.47;;;;;;;29.00;45.92;101189.86;2077622;85;27637;-67
2022/07/17 05:59:27;;;;;;;6.05;2.20;;;;;;;29.15;44.99;101187.74;2077870;85;29001;-67
2022/07/17 06:02:28;;;;;;;5.05;2.05;;;;;;;29.21;44.38;101192.53;2077780;84;30945;-66
2022/07/17 06:05:29;;;;;;;4.95;2.02;;;;;;;29.30;43.40;101196.13;2077997;84;33900;-66
2022/07/17 06:08:31;;;;;;;5.72;2.25;;;;;;;29.32;42.68;101195.43;2077518;85;30417;-67
2022/07/17 06:11:32;;;;;;;3.35;2.30;;;;;;;29.46;42.98;101195.25;2077602;85;27769;-66
2022/07/17 06:14:34;;;;;;;6.33;2.20;;;;;;;29.80;42.72;101202.33;2077243;85;28694;-66
2022/07/17 06:17:35;;;;;;;4.92;2.62;;;;;;;30.07;41.77;101200.11;2077692;85;32024;-67
2022/07/17 06:20:37;;;;;;;3.20;1.92;;;;;;;30.34;40.89;101199.23;2077146;85;33429;-66
2022/07/17 06:23:38;;;;;;;4.90;2.20;;;;;;;30.55;40.24;101200.80;2090396;84;29858;-66
2022/07/17 06:26:40;;;;;;;6.65;2.45;;;;;;;30.83;40.12;101202.09;2118846;84;27602;-66
2022/07/17 06:29:41;;;;;;;7.62;2.10;;;;;;;31.09;38.46;101203.58;2081082;85;29863;-69
2022/07/17 06:32:43;;;;;;;8.23;2.45;;;;;;;31.19;38.74;101207.78;2118203;84;32293;-69
2022/07/17 06:35:45;;;;;;;4.17;2.20;;;;;;;31.59;37.92;101203.84;2118587;84;33896;-67
2022/07/17 06:38:46;;;;;;;5.15;2.20;;;;;;;31.79;37.64;101207.77;2111638;84;29308;-66
2022/07/17 06:41:47;;;;;;;6.00;2.83;;;;;;;32.04;36.83;101205.16;2118178;84;28252;-68
2022/07/17 06:44:49;;;;;;;8.60;2.27;;;;;;;32.27;36.29;101200.84;2081191;85;29759;-67
2022/07/17 06:47:50;;;;;;;9.18;2.55;;;;;;;32.58;35.81;101199.10;2118108;84;32055;-67
2022/07/17 06:50:52;;;;;;;6.75;2.20;;;;;;;32.73;35.34;101202.31;2115577;84;34214;-68
2022/07/17 06:53:53;;;;;;;5.50;2.17;;;;;;;32.99;34.79;101200.80;2064204;84;29838;-65
2022/07/17 06:56:55;;;;;;;4.22;1.80;;;;;;;33.03;33.91;101208.52;2086956;85;27726;-68
2022/07/17 06:59:56;;;;;;;2.75;1.47;;;;;;;33.00;33.94;101207.56;2083485;85;28867;-68
2022/07/17 07:02:58;;;;;;;4.50;2.15;;;;;;;33.06;33.39;101207.78;2083505;85;31470;-67
2022/07/17 07:05:59;;;;;;;9.38;2.75;;;;;;;33.06;32.46;101212.83;2083491;84;34086;-67
2022/07/17 07:09:01;;;;;;;4.17;1.70;;;;;;;32.99;32.83;101218.84;2083509;85;29713;-69
2022/07/17 07:12:03;;;;;;;4.72;1.92;;;;;;;33.02;32.42;101226.23;2083232;85;27711;-68
2022/07/17 07:15:06;;;;;;;5.90;2.42;;;;;;;33.10;32.26;101223.83;2084047;85;29043;-68
2022/07/17 07:18:09;;;;;;;5.47;2.00;;;;;;;33.19;31.98;101224.52;2083764;85;31371;-70
2022/07/17 07:21:10;;;;;;;4.03;1.87;;;;;;;33.11;31.20;101219.98;2083359;84;32969;-69
2022/07/17 07:24:12;;;;;;;5.00;1.87;;;;;;;32.84;31.21;101215.66;2079526;85;30467;-69
2022/07/17 07:27:13;;;;;;;5.60;2.00;;;;;;;32.56;30.86;101217.86;2079715;85;27626;-70
2022/07/17 07:30:15;;;;;;;7.62;2.05;;;;;;;32.40;30.77;101212.05;2086178;85;29093;-74
2022/07/17 07:33:16;;;;;;;7.17;2.35;;;;;;;32.37;30.75;101212.98;2085860;85;30949;-73
2022/07/17 07:36:17;;;;;;;4.78;1.65;;;;;;;32.31;30.76;101217.41;2085796;85;32979;-73
2022/07/17 07:39:18;;;;;;;5.80;2.47;;;;;;;32.35;30.55;101215.94;2107070;84;30106;-72
2022/07/17 07:42:20;;;;;;;5.70;1.92;;;;;;;32.19;30.39;101210.11;2107187;84;27690;-72
2022/07/17 07:45:21;;;;;;;7.62;2.27;;;;;;;32.19;30.82;101207.34;2107035;84;28029;-73
2022/07/17 07:48:23;;;;;;;6.95;2.20;;;;;;;32.33;31.02;101211.14;2106923;84;31039;-73
2022/07/17 07:51:24;;;;;;;4.78;2.02;;;;;;;32.39;30.73;101215.88;2107277;84;33151;-74
2022/07/17 07:54:25;;;;;;;5.72;1.90;;;;;;;32.34;30.29;101217.02;2110090;84;29398;-74
2022/07/17 07:57:26;;;;;;;6.28;2.20;;;;;;;32.16;30.02;101218.81;2109401;84;27724;-68
2022/07/17 08:00:27;;;;;;;4.22;1.92;;;;;;;31.99;30.08;101218.22;2109120;84;28601;-72
2022/07/17 08:03:29;;;;;;;9.18;2.33;;;;;;;31.93;29.89;101221.25;2107910;84;31800;-74
2022/07/17 08:06:31;;;;;;;5.60;1.95;;;;;;;31.90;30.09;101216.61;2108333;84;33016;-74
2022/07/17 08:09:32;;;;;;;8.13;2.15;;;;;;;31.90;30.04;101215.22;2108698;84;29328;-74
2022/07/17 08:12:34;;;;;;;10.08;2.75;;;;;;;31.93;30.11;101221.77;2107728;84;36350;-70
2022/07/17 08:15:36;;;;;;;7.53;1.90;;;;;;;31.89;29.96;101216.28;2108899;84;28667;-70
2022/07/17 08:18:38;;;;;;;4.85;2.33;;;;;;;31.84;29.66;101217.41;2108438;84;31056;-72
2022/07/17 08:21:40;;;;;;;6.05;2.35;;;;;;;31.80;30.29;101221.95;2108498;84;32946;-74
2022/07/17 08:24:41;;;;;;;4.28;1.60;;;;;;;31.89;29.98;101219.05;2107219;84;30127;-73
2022/07/17 08:27:44;;;;;;;6.42;2.42;;;;;;;31.70;29.28;101224.15;2107137;84;27796;-73
2022/07/17 08:30:45;;;;;;;5.95;1.70;;;;;;;31.04;29.53;101227.64;2107026;84;28759;-71
2022/07/17 08:33:46;;;;;;;4.17;2.08;;;;;;;30.58;29.72;101233.62;2107076;84;30516;-72
2022/07/17 08:36:48;;;;;;;5.12;1.40;;;;;;;30.72;30.13;101232.45;2106966;84;32937;-71
2022/07/17 08:39:49;;;;;;;7.10;3.42;;;;;;;30.75;29.79;101227.94;2107142;84;29386;-71
2022/07/17 08:42:52;;;;;;;5.85;2.25;;;;;;;30.67;29.75;101226.64;2107107;84;27610;-71
2022/07/17 08:45:53;;;;;;;6.42;1.70;;;;;;;30.13;29.81;101240.30;2107037;84;29458;-70
2022/07/17 08:49:02;;;;;;;2.42;1.27;;;;;;;29.79;30.29;101245.64;2082849;84;31848;-71
2022/07/17 08:52:01;;;;;;;5.17;1.98;;;;;;;29.99;30.24;101237.82;2107856;84;33060;-71
2022/07/17 08:55:07;;;;;;;4.33;1.60;;;;;;;30.04;29.83;101250.20;2111064;84;29425;-70
2022/07/17 08:58:16;;;;;;;4.25;1.77;;;;;;;29.60;30.06;101253.86;2111279;84;27668;-71
2022/07/17 09:01:19;;;;;;;4.92;1.57;;;;;;;29.43;29.96;101257.21;2111423;84;28580;-71
2022/07/17 09:04:22;;;;;;;6.33;1.62;;;;;;;29.48;30.48;101247.85;2111567;84;31013;-71
2022/07/17 09:07:25;;;;;;;6.35;1.35;;;;;;;29.83;30.11;101239.27;2111199;84;34100;-71
2022/07/17 09:10:42;;;;;;;3.37;1.22;;;;;;;29.95;29.94;101249.39;2117968;83;29316;-71
2022/07/17 09:13:50;;;;;;;4.05;1.50;;;;;;;29.90;29.97;101248.53;2111061;84;27697;-71
2022/07/17 09:17:01;;;;;;;4.55;1.42;;;;;;;29.50;29.79;101255.44;2094561;84;28654;-69
2022/07/17 09:20:11;;;;;;;5.10;2.42;;;;;;;29.08;30.34;101260.71;2110959;84;31079;-69
2022/07/17 09:23:13;;;;;;;3.72;1.72;;;;;;;28.64;30.34;101259.16;2117206;84;33830;-69
2022/07/17 09:26:16;;;;;;;4.28;1.80;;;;;;;28.62;30.49;101256.58;2110842;84;29330;-69
2022/07/17 09:29:18;;;;;;;5.90;1.62;;;;;;;28.77;30.71;101252.62;2111291;84;27691;-70
2022/07/17 09:32:23;;;;;;;3.52;1.52;;;;;;;29.07;31.23;101243.81;2110831;83;28642;-69
2022/07/17 09:35:26;;;;;;;6.00;2.37;;;;;;;28.97;30.72;101246.75;2118015;83;31010;-69
2022/07/17 09:38:32;;;;;;;6.80;1.75;;;;;;;28.63;30.41;101249.16;2111290;84;32947;-69
2022/07/17 09:41:34;;;;;;;4.15;1.87;;;;;;;28.27;30.30;101246.71;2110947;84;29310;-69
2022/07/17 09:44:36;;;;;;;4.83;1.40;;;;;;;27.82;30.81;101248.30;2118017;83;28233;-69
2022/07/17 09:47:39;;;;;;;4.65;1.50;;;;;;;27.60;31.17;101246.48;2110922;84;29831;-76
2022/07/17 09:50:41;;;;;;;5.22;1.50;;;;;;;27.29;31.28;101244.77;2110133;84;31084;-72
2022/07/17 09:53:47;;;;;;;3.35;1.15;;;;;;;27.06;31.55;101245.31;2104724;84;32959;-72
2022/07/17 09:56:51;;;;;;;7.55;1.52;;;;;;;27.01;31.87;101238.57;2115898;84;29427;-73
2022/07/17 10:00:00;;;;;;;3.25;1.57;;;;;;;27.03;31.80;101241.50;2109614;84;27707;-67
2022/07/17 10:03:01;;;;;;;4.80;1.20;;;;;;;26.97;31.76;101239.41;2110093;84;28628;-71
2022/07/17 10:06:04;;;;;;;4.65;1.45;;;;;;;26.89;31.81;101240.72;2117515;82;31000;-68
2022/07/17 10:09:06;;;;;;;5.28;2.90;;;;;;;26.77;32.30;101243.70;2109497;84;33804;-66
2022/07/17 10:12:08;;;;;;;3.83;1.75;;;;;;;26.65;32.18;101243.08;2109143;84;29300;-67
2022/07/17 10:15:10;;;;;;;4.65;1.45;;;;;;;26.64;32.19;101241.88;2109181;84;27620;-66
2022/07/17 10:18:12;;;;;;;4.15;1.65;;;;;;;26.64;32.25;101227.61;2108883;84;28710;-67
2022/07/17 10:21:17;;;;;;;2.47;1.25;;;;;;;26.69;32.26;101227.13;2108764;84;30999;-67
2022/07/17 10:24:19;;;;;;;4.08;1.55;;;;;;;26.74;32.23;101228.89;2107144;84;33922;-67
2022/07/17 10:27:29;;;;;;;2.58;1.12;;;;;;;26.76;32.27;101227.34;2106265;84;29333;-71
2022/07/17 10:30:31;;;;;;;3.52;1.10;;;;;;;26.82;32.34;101220.72;2107393;84;27695;-71
2022/07/17 10:33:33;;;;;;;3.45;1.50;;;;;;;26.94;32.24;101224.08;2106163;84;28636;-68
2022/07/17 10:36:41;;;;;;;5.87;1.45;;;;;;;27.05;31.74;101228.45;2107038;84;31021;-66
2022/07/17 10:40:04;;;;;;;5.47;1.25;;;;;;;27.03;31.97;101222.77;2107165;84;33741;-69
2022/07/17 10:43:08;;;;;;;4.22;1.10;;;;;;;27.15;32.17;101222.84;2106749;84;30178;-72
2022/07/17 10:46:09;;;;;;;5.80;1.60;;;;;;;27.18;32.01;101232.64;2113677;82;27700;-71
2022/07/17 10:49:11;;;;;;;3.80;1.37;;;;;;;27.19;32.31;101230.25;2110960;84;29270;-68
2022/07/17 10:52:12;;;;;;;3.60;1.07;;;;;;;27.30;32.17;101229.98;2109150;84;31796;-69
2022/07/17 10:55:22;;;;;;;4.15;1.30;;;;;;;27.23;32.06;101220.66;2108040;84;33010;-70
2022/07/17 10:58:31;;;;;;;4.20;1.20;;;;;;;27.13;31.48;101224.39;2108179;84;30051;-69
2022/07/17 11:01:33;;;;;;;9.58;2.02;;;;;;;27.13;32.13;101227.64;2108215;84;27718;-67
2022/07/17 11:04:39;;;;;;;3.25;1.40;;;;;;;27.16;31.93;101223.20;2108182;84;29338;-68
2022/07/17 11:07:58;;;;;;;3.75;1.40;;;;;;;27.09;31.58;101220.73;2111650;84;31829;-70
2022/07/17 11:10:59;;;;;;;4.72;1.12;;;;;;;26.97;31.39;101222.91;2090700;85;33044;-71
2022/07/17 11:14:18;;;;;;;4.83;1.57;;;;;;;26.91;31.59;101216.15;2089331;84;29320;-67
2022/07/17 11:17:20;;;;;;;6.80;1.77;;;;;;;26.72;31.57;101216.34;2107013;83;28141;-68
2022/07/17 11:20:21;;;;;;;5.47;1.42;;;;;;;26.55;31.84;101206.59;2125406;83;29451;-67
2022/07/17 11:23:26;;;;;;;2.95;1.32;;;;;;;26.41;31.81;101206.64;2084053;83;31933;-68
2022/07/17 11:26:28;;;;;;;2.87;1.37;;;;;;;26.36;31.63;101211.24;2081459;85;32941;-72
2022/07/17 11:29:32;;;;;;;3.12;1.60;;;;;;;26.31;32.26;101210.84;2108426;84;29952;-66
2022/07/17 11:32:38;;;;;;;3.47;1.30;;;;;;;26.26;32.13;101210.97;2086473;84;27713;-66
2022/07/17 11:35:39;;;;;;;5.87;1.20;;;;;;;26.23;31.83;101215.75;2108387;84;28641;-65
2022/07/17 11:38:41;;;;;;;5.22;1.32;;;;;;;26.07;31.87;101208.69;2111668;84;31825;-70
2022/07/17 11:41:53;;;;;;;3.42;1.30;;;;;;;25.98;31.74;101204.14;2112682;84;33743;-69
2022/07/17 11:44:55;;;;;;;2.67;1.37;;;;;;;25.86;32.06;101217.22;2101090;84;29335;-67
2022/07/17 11:48:05;;;;;;;5.25;1.40;;;;;;;25.80;32.52;101213.21;2101414;84;27691;-67
2022/07/17 11:51:06;;;;;;;6.37;1.20;;;;;;;25.79;32.59;101216.97;2099298;84;28633;-72
2022/07/17 11:54:12;;;;;;;6.47;1.60;;;;;;;25.78;33.03;101216.09;2074064;85;31028;-69
2022/07/17 11:57:14;;;;;;;4.72;1.77;;;;;;;25.83;32.75;101214.25;2111358;84;33632;-68
2022/07/17 12:00:19;;;;;;;9.25;1.57;;;;;;;25.84;32.52;101211.02;2081781;85;29335;-69
2022/07/17 12:03:25;;;;;;;5.12;1.22;;;;;;;25.85;33.04;101214.97;2113946;84;27698;-66
2022/07/17 12:06:27;;;;;;;5.15;1.20;;;;;;;25.88;32.89;101211.06;2076794;85;28652;-69
2022/07/17 12:09:33;;;;;;;3.83;1.27;;;;;;;25.79;32.13;101202.72;2071716;85;31103;-67
2022/07/17 12:12:34;;;;;;;5.62;1.20;;;;;;;25.57;32.86;101208.12;2109624;84;33341;-68
2022/07/17 12:15:49;;;;;;;5.25;1.80;;;;;;;25.52;33.07;101203.59;2110209;84;29452;-68
2022/07/17 12:19:08;;;;;;;5.58;1.30;;;;;;;25.53;33.22;101198.47;2114948;82;27722;-70
2022/07/17 12:22:10;;;;;;;5.40;1.20;;;;;;;25.44;33.17;101205.73;2121941;82;29295;-70
2022/07/17 12:25:26;;;;;;;4.97;1.40;;;;;;;25.40;33.21;101197.41;2107332;84;31810;-67
2022/07/17 12:28:28;;;;;;;5.42;1.65;;;;;;;25.33;33.24;101205.91;2107273;84;33472;-73
2022/07/17 12:31:30;;;;;;;3.72;1.12;;;;;;;25.23;33.25;101199.61;2107458;84;29348;-69
2022/07/17 12:34:31;;;;;;;5.40;1.75;;;;;;;25.15;32.78;101203.10;2107330;84;28358;-69
2022/07/17 12:37:33;;;;;;;4.20;1.30;;;;;;;25.03;33.30;101200.52;2107406;84;28636;-78
2022/07/17 12:40:34;;;;;;;4.50;1.40;;;;;;;25.04;33.49;101200.03;2107277;84;31812;-69
2022/07/17 12:43:35;;;;;;;3.62;1.40;;;;;;;25.11;33.99;101202.52;2083277;84;32975;-72
2022/07/17 12:46:36;;;;;;;4.37;1.40;;;;;;;25.12;33.83;101203.39;2107204;84;29393;-71
2022/07/17 12:49:39;;;;;;;6.42;1.52;;;;;;;25.17;34.09;101198.30;2107499;84;27750;-66
2022/07/17 12:52:40;;;;;;;4.87;1.47;;;;;;;25.06;33.45;101196.64;2109936;84;28631;-66
2022/07/17 12:55:41;;;;;;;5.75;1.35;;;;;;;24.93;33.69;101197.44;2107581;84;31062;-65
2022/07/17 12:58:42;;;;;;;4.00;1.50;;;;;;;24.80;33.35;101190.94;2107633;84;32995;-65
2022/07/17 13:01:45;;;;;;;5.22;1.80;;;;;;;24.73;33.76;101190.66;2107626;84;29301;-66
2022/07/17 13:04:46;;;;;;;4.60;1.30;;;;;;;24.68;33.69;101180.09;2102280;84;27626;-65
2022/07/17 13:07:47;;;;;;;3.70;1.25;;;;;;;24.64;34.44;101187.39;2089609;85;28655;-65
2022/07/17 13:10:49;;;;;;;3.20;1.30;;;;;;;24.55;33.73;101183.16;2089633;85;29893;-64
2022/07/17 13:13:50;;;;;;;6.25;1.20;;;;;;;24.40;33.75;101185.98;2090050;84;33406;-64
2022/07/17 13:16:53;;;;;;;2.55;1.32;;;;;;;24.30;34.15;101187.36;2101753;84;30569;-60
2022/07/17 13:19:54;;;;;;;7.92;1.40;;;;;;;24.23;33.87;101184.83;2090424;85;27668;-61
2022/07/17 13:22:56;;;;;;;5.65;1.75;;;;;;;24.11;33.55;101183.61;2101598;84;28820;-62
2022/07/17 13:25:58;;;;;;;7.70;1.52;;;;;;;24.01;33.80;101181.86;2089885;85;31541;-62
2022/07/17 13:29:00;;;;;;;3.80;1.60;;;;;;;23.90;33.89;101178.23;2089952;85;33982;-61
2022/07/17 13:32:04;;;;;;;5.17;1.50;;;;;;;23.83;33.94;101171.58;2090113;85;29974;-60
2022/07/17 13:35:07;;;;;;;3.10;1.60;;;;;;;23.79;34.22;101172.86;2090316;85;33218;-62
2022/07/17 13:38:09;;;;;;;5.83;1.55;;;;;;;23.70;34.04;101180.05;2102095;84;29040;-62
2022/07/17 13:41:10;;;;;;;4.53;1.30;;;;;;;23.61;33.83;101170.81;2090094;85;30820;-60
2022/07/17 13:44:12;;;;;;;3.52;1.35;;;;;;;23.57;34.10;101163.03;2090059;85;34122;-60
2022/07/17 13:47:13;;;;;;;3.85;1.57;;;;;;;23.52;34.01;101173.03;2064455;85;31838;-60
2022/07/17 13:50:15;;;;;;;3.27;1.40;;;;;;;23.49;34.57;101171.94;2102277;84;27718;-60
2022/07/17 13:53:16;;;;;;;5.53;1.47;;;;;;;23.44;34.21;101166.89;2089254;84;29115;-62
2022/07/17 13:56:19;;;;;;;6.87;1.47;;;;;;;23.43;34.58;101166.53;2087344;85;31643;-61
2022/07/17 13:59:20;;;;;;;3.98;1.17;;;;;;;23.42;34.61;101162.06;2089621;85;34201;-60
2022/07/17 14:02:22;;;;;;;4.75;1.20;;;;;;;23.42;34.71;101163.42;2089932;85;29662;-63
2022/07/17 14:05:23;;;;;;;2.42;1.15;;;;;;;23.42;34.63;101159.33;2053792;86;27711;-61
2022/07/17 14:08:25;;;;;;;4.50;1.27;;;;;;;23.41;34.22;101149.39;2089809;85;29110;-60
2022/07/17 14:11:26;;;;;;;1.98;1.15;;;;;;;23.43;34.16;101165.64;2053875;86;31469;-60